Eko 2 — SY9957 — position and weather

sailwx.info

Track history (hours):
 
Tides and Currents Weather Stations Pressure Air Temp Water Temp Dewpoint Dewpoint Depression Visibility Wind Speed Wind Dir Waves Ship Positions

Eko 2

Last reported at 2018-Jan-21 06:03 UTC. Time now 2018-Jan-21 12:25 UTC.
Position N 37°26' E 024°57'.

Length 89 m; draft 4.3 m.

Type: Ship (hazmat cat A). MMSI: 240827000.

Date/timePositionNaut miles runAvg speedWind from/ knotsBaromVisibWave heightAir tempDewpointWater temp
2018-Jan-21 06:03N 37°26' E 024°57'0 4.9
2018-Jan-21 06:00N 37°26' E 024°57'5 9.7
2018-Jan-21 05:30N 37°27' E 025°03'510.8
2018-Jan-21 05:01N 37°27' E 025°10'510.8
2018-Jan-21 04:30N 37°28' E 025°17'2 4.1
2018-Jan-21 04:00N 37°28' E 025°19'0 0.0
2018-Jan-21 03:29N 37°28' E 025°19'0 0.0
2018-Jan-21 02:59N 37°28' E 025°19'0 0.0
2018-Jan-21 02:26N 37°28' E 025°19'0 0.0
2018-Jan-21 01:59N 37°28' E 025°19'0 0.0
2018-Jan-21 01:29N 37°28' E 025°19'0 0.0
2018-Jan-21 00:59N 37°28' E 025°19'0 0.0
2018-Jan-21 00:29N 37°28' E 025°19'0 0.0
2018-Jan-20 23:59N 37°28' E 025°19'0 0.0
2018-Jan-20 23:29N 37°28' E 025°19'0 0.0
2018-Jan-20 22:59N 37°28' E 025°19'0 0.0
2018-Jan-20 22:29N 37°28' E 025°19'0 0.0
2018-Jan-20 21:59N 37°28' E 025°19'0 0.0
2018-Jan-20 21:29N 37°28' E 025°19'0 0.0
2018-Jan-20 20:53N 37°28' E 025°19'0 0.0
2018-Jan-20 20:29N 37°28' E 025°19'0 0.0
2018-Jan-20 18:20N 37°28' E 025°19'0 0.0
2018-Jan-20 17:59N 37°28' E 025°19'0 0.0
2018-Jan-20 17:29N 37°28' E 025°19'0 0.0
2018-Jan-20 16:41N 37°28' E 025°19'0 0.0
2018-Jan-20 16:30N 37°28' E 025°19'0 0.0
2018-Jan-20 15:57N 37°28' E 025°19'0 0.0
2018-Jan-20 15:29N 37°28' E 025°19'0 0.0
2018-Jan-20 14:59N 37°28' E 025°19'0 0.0
2018-Jan-20 14:29N 37°28' E 025°19'0 0.0
2018-Jan-20 13:59N 37°28' E 025°19'0 0.0
2018-Jan-20 13:29N 37°28' E 025°19'0 0.0
2018-Jan-20 12:59N 37°28' E 025°19'0 0.0
2018-Jan-20 12:29N 37°28' E 025°19'0 0.0
2018-Jan-20 11:59N 37°28' E 025°19'0 0.0
2018-Jan-20 11:29N 37°28' E 025°19'0 0.0
2018-Jan-20 10:57N 37°28' E 025°19'1 2.1
2018-Jan-20 10:30N 37°28' E 025°18'611.4
2018-Jan-20 10:00N 37°29' E 025°11'510.7
2018-Jan-20 09:30N 37°32' E 025°05'510.8
2018-Jan-20 09:00N 37°36' E 025°01'19 1.3
2018-Jan-19 18:44N 37°49' E 024°44'2 8.2
2018-Jan-19 18:30N 37°48' E 024°46'4 8.2
2018-Jan-19 18:00N 37°45' E 024°49'10 7.4
2018-Jan-19 16:43N 37°38' E 024°58'211.2
2018-Jan-19 16:30N 37°36' E 024°60'611.1
2018-Jan-19 16:00N 37°33' E 025°05'3 5.2
2018-Jan-19 15:23N 37°32' E 025°09'0 0.0
2018-Jan-19 14:59N 37°32' E 025°09'0 0.0
2018-Jan-19 14:29N 37°32' E 025°09'0 0.0
2018-Jan-19 13:59N 37°32' E 025°09'0 0.0
2018-Jan-19 13:29N 37°32' E 025°09'0 0.0
2018-Jan-19 12:56N 37°32' E 025°09'0 0.0
2018-Jan-19 12:29N 37°32' E 025°09'0 0.1
2018-Jan-19 12:00N 37°32' E 025°09'3 6.1
2018-Jan-19 11:31N 37°31' E 025°13'510.2
2018-Jan-19 11:00N 37°34' E 025°18'611.2
2018-Jan-19 10:30N 37°39' E 025°21'511.0
2018-Jan-19 10:00N 37°44' E 025°24'511.0
2018-Jan-19 09:31N 37°49' E 025°27'510.9
2018-Jan-19 09:00N 37°53' E 025°31'  
2018-Jan-11 20:03N 39°51' E 024°59'510.9
2018-Jan-11 19:34N 39°49' E 024°53'510.8
2018-Jan-11 19:05N 39°46' E 024°47'2610.4
2018-Jan-11 16:37N 39°36' E 024°16'110.4
2018-Jan-11 16:30N 39°35' E 024°15'610.6
2018-Jan-11 15:56N 39°32' E 024°08'  
Track history (hours):
 
Tides and Currents Weather Stations Pressure Air Temp Water Temp Dewpoint Dewpoint Depression Visibility Wind Speed Wind Dir Waves Ship Positions

Eko 2

Last reported at 2018-Jan-21 06:03 UTC. Time now 2018-Jan-21 12:25 UTC.
Position N 37°26' E 024°57'.

Length 89 m; draft 4.3 m.

Type: Ship (hazmat cat A). MMSI: 240827000.

Date/timePositionNaut miles runAvg speedWind from/ knotsBaromVisibWave heightAir tempDewpointWater temp
2018-Jan-21 06:03N 37°26' E 024°57'0 4.9
2018-Jan-21 06:00N 37°26' E 024°57'5 9.7
2018-Jan-21 05:30N 37°27' E 025°03'510.8
2018-Jan-21 05:01N 37°27' E 025°10'510.8
2018-Jan-21 04:30N 37°28' E 025°17'2 4.1
2018-Jan-21 04:00N 37°28' E 025°19'0 0.0
2018-Jan-21 03:29N 37°28' E 025°19'0 0.0
2018-Jan-21 02:59N 37°28' E 025°19'0 0.0
2018-Jan-21 02:26N 37°28' E 025°19'0 0.0
2018-Jan-21 01:59N 37°28' E 025°19'0 0.0
2018-Jan-21 01:29N 37°28' E 025°19'0 0.0
2018-Jan-21 00:59N 37°28' E 025°19'0 0.0
2018-Jan-21 00:29N 37°28' E 025°19'0 0.0
2018-Jan-20 23:59N 37°28' E 025°19'0 0.0
2018-Jan-20 23:29N 37°28' E 025°19'0 0.0
2018-Jan-20 22:59N 37°28' E 025°19'0 0.0
2018-Jan-20 22:29N 37°28' E 025°19'0 0.0
2018-Jan-20 21:59N 37°28' E 025°19'0 0.0
2018-Jan-20 21:29N 37°28' E 025°19'0 0.0
2018-Jan-20 20:53N 37°28' E 025°19'0 0.0
2018-Jan-20 20:29N 37°28' E 025°19'0 0.0
2018-Jan-20 18:20N 37°28' E 025°19'0 0.0
2018-Jan-20 17:59N 37°28' E 025°19'0 0.0
2018-Jan-20 17:29N 37°28' E 025°19'0 0.0
2018-Jan-20 16:41N 37°28' E 025°19'0 0.0
2018-Jan-20 16:30N 37°28' E 025°19'0 0.0
2018-Jan-20 15:57N 37°28' E 025°19'0 0.0
2018-Jan-20 15:29N 37°28' E 025°19'0 0.0
2018-Jan-20 14:59N 37°28' E 025°19'0 0.0
2018-Jan-20 14:29N 37°28' E 025°19'0 0.0
2018-Jan-20 13:59N 37°28' E 025°19'0 0.0
2018-Jan-20 13:29N 37°28' E 025°19'0 0.0
2018-Jan-20 12:59N 37°28' E 025°19'0 0.0
2018-Jan-20 12:29N 37°28' E 025°19'0 0.0
2018-Jan-20 11:59N 37°28' E 025°19'0 0.0
2018-Jan-20 11:29N 37°28' E 025°19'0 0.0
2018-Jan-20 10:57N 37°28' E 025°19'1 2.1
2018-Jan-20 10:30N 37°28' E 025°18'611.4
2018-Jan-20 10:00N 37°29' E 025°11'510.7
2018-Jan-20 09:30N 37°32' E 025°05'510.8
2018-Jan-20 09:00N 37°36' E 025°01'19 1.3
2018-Jan-19 18:44N 37°49' E 024°44'2 8.2
2018-Jan-19 18:30N 37°48' E 024°46'4 8.2
2018-Jan-19 18:00N 37°45' E 024°49'10 7.4
2018-Jan-19 16:43N 37°38' E 024°58'211.2
2018-Jan-19 16:30N 37°36' E 024°60'611.1
2018-Jan-19 16:00N 37°33' E 025°05'3 5.2
2018-Jan-19 15:23N 37°32' E 025°09'0 0.0
2018-Jan-19 14:59N 37°32' E 025°09'0 0.0
2018-Jan-19 14:29N 37°32' E 025°09'0 0.0
2018-Jan-19 13:59N 37°32' E 025°09'0 0.0
2018-Jan-19 13:29N 37°32' E 025°09'0 0.0
2018-Jan-19 12:56N 37°32' E 025°09'0 0.0
2018-Jan-19 12:29N 37°32' E 025°09'0 0.1
2018-Jan-19 12:00N 37°32' E 025°09'3 6.1
2018-Jan-19 11:31N 37°31' E 025°13'510.2
2018-Jan-19 11:00N 37°34' E 025°18'611.2
2018-Jan-19 10:30N 37°39' E 025°21'511.0
2018-Jan-19 10:00N 37°44' E 025°24'511.0
2018-Jan-19 09:31N 37°49' E 025°27'510.9
2018-Jan-19 09:00N 37°53' E 025°31'  
2018-Jan-11 20:03N 39°51' E 024°59'510.9
2018-Jan-11 19:34N 39°49' E 024°53'510.8
2018-Jan-11 19:05N 39°46' E 024°47'2610.4
2018-Jan-11 16:37N 39°36' E 024°16'110.4
2018-Jan-11 16:30N 39°35' E 024°15'610.6
2018-Jan-11 15:56N 39°32' E 024°08'  

Dump ship's entire track history